Maersk Saigon — 9V5630 — position and weather

sailwx.info

Track history (hours):
 
Tides and Currents Weather Stations Pressure Air Temp Water Temp Dewpoint Dewpoint Depression Visibility Wind Speed Wind Dir Waves Ship Positions

Maersk Saigon

Last reported at 2018-Jun-18 08:20 UTC. Time now 2018-Jun-20 18:44 UTC.
Position N 01°28' E 104°33'.

Length 331 m; draft 10.7 m.

Type: Ship (hazmat cat A). MMSI: 563032700.

Date/timePositionNaut miles runAvg speedWind from/ knotsBaromVisibWave heightAir tempDewpointWater temp
2018-Jun-18 08:20N 01°28' E 104°33'617.8
2018-Jun-18 08:00N 01°24' E 104°28'917.0
2018-Jun-18 07:30N 01°19' E 104°22'815.2
2018-Jun-18 07:00N 01°16' E 104°15'815.8
2018-Jun-18 06:30N 01°15' E 104°07'815.5
2018-Jun-18 05:59N 01°14' E 103°59'816.3
2018-Jun-18 05:30N 01°11' E 103°52'815.2
2018-Jun-18 05:00N 01°07' E 103°45'815.1
2018-Jun-18 04:30N 01°03' E 103°39'714.0
2018-Jun-18 04:00N 01°06' E 103°33'815.1
2018-Jun-18 03:30N 01°11' E 103°27'917.9
2018-Jun-18 03:00N 01°16' E 103°20'1217.0
2018-Jun-18 02:19N 01°24' E 103°11'  
Track history (hours):
 
Tides and Currents Weather Stations Pressure Air Temp Water Temp Dewpoint Dewpoint Depression Visibility Wind Speed Wind Dir Waves Ship Positions

Maersk Saigon

Last reported at 2018-Jun-18 08:20 UTC. Time now 2018-Jun-20 18:44 UTC.
Position N 01°28' E 104°33'.

Length 331 m; draft 10.7 m.

Type: Ship (hazmat cat A). MMSI: 563032700.

Date/timePositionNaut miles runAvg speedWind from/ knotsBaromVisibWave heightAir tempDewpointWater temp
2018-Jun-18 08:20N 01°28' E 104°33'617.8
2018-Jun-18 08:00N 01°24' E 104°28'917.0
2018-Jun-18 07:30N 01°19' E 104°22'815.2
2018-Jun-18 07:00N 01°16' E 104°15'815.8
2018-Jun-18 06:30N 01°15' E 104°07'815.5
2018-Jun-18 05:59N 01°14' E 103°59'816.3
2018-Jun-18 05:30N 01°11' E 103°52'815.2
2018-Jun-18 05:00N 01°07' E 103°45'815.1
2018-Jun-18 04:30N 01°03' E 103°39'714.0
2018-Jun-18 04:00N 01°06' E 103°33'815.1
2018-Jun-18 03:30N 01°11' E 103°27'917.9
2018-Jun-18 03:00N 01°16' E 103°20'1217.0
2018-Jun-18 02:19N 01°24' E 103°11'  

Dump ship's entire track history